Chiclayo, Chiclayo International Airport (SPHI)

NameChiclayo International Airport
CityChiclayo
CountryPeru
ICAOSPHI
IATACIX
Altitude30 m
CoordinatesGoogle Map
Live Air TrafficLiveATC.net
METARSPHI 201600Z 18014KT CAVOK 25/18 Q1014 RMK BIRD HAZARD RWY 19/01 PP000
2019-05-20 16:00:00 Wind: South (180°) 7.2 m/s - Visibility: > 10000 m - Weather: CAVOK - Temperature: 25 °C - Dew point: 18 °C - Humidity: 65.2% - Pressure: 1014 hPa
Statistics

The table below shows the detailed information of all flights to/from Chiclayo, Chiclayo International Airport (SPHI).